createdAt,value
2022-11-17T00:02:13.678Z,91.22
2022-11-17T00:04:40.381Z,91.54
2022-11-17T00:07:06.934Z,91.80
2022-11-17T00:09:33.636Z,91.76
2022-11-17T00:12:22.487Z,92.22
2022-11-17T00:14:54.144Z,91.55
2022-11-17T00:17:22.956Z,91.66
2022-11-17T00:20:08.110Z,92.09
2022-11-17T00:22:34.753Z,92.00
2022-11-17T00:25:01.279Z,92.56
2022-11-17T00:27:27.901Z,92.26
2022-11-17T00:29:54.488Z,92.40
2022-11-17T00:32:39.755Z,92.53
2022-11-17T00:35:07.076Z,92.99
2022-11-17T00:37:37.433Z,92.90
2022-11-17T00:40:09.484Z,93.12
2022-11-17T00:42:36.040Z,93.07
2022-11-17T00:45:05.544Z,93.35
2022-11-17T00:47:36.137Z,93.37
2022-11-17T00:50:02.692Z,93.47
2022-11-17T00:52:31.507Z,93.49
2022-11-17T00:54:58.200Z,93.48
2022-11-17T00:57:25.280Z,93.97
2022-11-17T00:59:52.108Z,93.59
2022-11-17T01:02:18.819Z,93.85
2022-11-17T01:04:45.372Z,93.69
2022-11-17T01:07:11.983Z,94.16
2022-11-17T01:09:38.698Z,93.98
2022-11-17T01:12:05.652Z,93.96
2022-11-17T01:14:32.743Z,93.84
2022-11-17T01:16:59.446Z,94.16
2022-11-17T01:19:26.040Z,94.02
2022-11-17T01:21:52.718Z,94.21
2022-11-17T01:24:19.295Z,94.37
2022-11-17T01:26:46.451Z,94.31
2022-11-17T01:29:19.285Z,94.74
2022-11-17T01:31:50.632Z,94.78
2022-11-17T01:34:17.602Z,94.57
2022-11-17T01:37:03.572Z,95.08
2022-11-17T01:39:31.312Z,94.90
2022-11-17T01:41:58.767Z,94.70
2022-11-17T01:44:54.247Z,95.19
2022-11-17T01:47:25.624Z,94.99
2022-11-17T01:50:00.691Z,95.05
2022-11-17T01:52:29.263Z,95.37
2022-11-17T01:54:57.036Z,94.92
2022-11-17T01:57:33.141Z,95.24
2022-11-17T02:00:07.964Z,95.58
2022-11-17T02:02:37.408Z,95.34
2022-11-17T02:05:41.930Z,95.67
2022-11-17T02:08:10.038Z,95.68
2022-11-17T02:10:38.310Z,95.72
2022-11-17T02:13:05.612Z,95.81
2022-11-17T02:15:32.214Z,96.19
2022-11-17T02:18:00.172Z,95.96
2022-11-17T02:20:32.907Z,96.03
2022-11-17T02:23:05.324Z,95.95
2022-11-17T02:25:50.622Z,95.77
2022-11-17T02:28:48.787Z,95.87
2022-11-17T02:31:24.447Z,95.66
2022-11-17T02:34:12.086Z,95.76
2022-11-17T02:36:57.042Z,96.05
2022-11-17T02:39:55.436Z,96.09
2022-11-17T02:42:55.605Z,96.22
2022-11-17T02:45:28.896Z,96.18
2022-11-17T02:48:00.565Z,96.06
2022-11-17T02:50:28.941Z,96.29
2022-11-17T02:52:56.539Z,96.55
2022-11-17T02:55:23.176Z,96.33
2022-11-17T02:57:49.854Z,96.30
2022-11-17T03:00:20.099Z,96.44
2022-11-17T03:03:18.787Z,96.76
2022-11-17T03:05:48.364Z,96.49
2022-11-17T03:08:31.597Z,96.41
2022-11-17T03:11:04.037Z,96.29
2022-11-17T03:13:46.543Z,96.46
2022-11-17T03:16:30.215Z,96.16
2022-11-17T03:19:25.564Z,96.00
2022-11-17T03:22:10.792Z,96.31
2022-11-17T03:24:42.242Z,96.21
2022-11-17T03:27:16.015Z,96.13
2022-11-17T03:29:50.219Z,96.10
2022-11-17T03:32:18.155Z,96.22
2022-11-17T03:34:52.147Z,96.43
2022-11-17T03:37:23.050Z,96.02
2022-11-17T03:39:53.282Z,96.40
2022-11-17T03:42:26.266Z,96.40
2022-11-17T03:45:03.158Z,96.42
2022-11-17T03:47:32.809Z,96.35
2022-11-17T03:49:59.266Z,96.45
2022-11-17T03:52:29.676Z,96.41
2022-11-17T03:54:58.927Z,96.86
2022-11-17T03:57:32.638Z,96.78
2022-11-17T04:00:10.584Z,96.78
2022-11-17T04:02:41.883Z,96.59
2022-11-17T04:05:12.308Z,96.55
2022-11-17T04:07:43.659Z,96.73
2022-11-17T04:10:19.344Z,96.67
2022-11-17T04:13:06.510Z,96.51
2022-11-17T04:15:52.050Z,95.80
2022-11-17T04:18:19.824Z,95.41
2022-11-17T04:20:50.636Z,95.43
2022-11-17T04:23:17.625Z,95.35
2022-11-17T04:26:07.795Z,94.84
2022-11-17T04:28:36.919Z,95.27
2022-11-17T04:31:09.381Z,94.92
2022-11-17T04:33:37.820Z,95.18
2022-11-17T04:36:05.850Z,94.84
2022-11-17T04:38:32.530Z,95.06
2022-11-17T04:41:25.059Z,95.00
2022-11-17T04:43:51.900Z,94.89
2022-11-17T04:46:24.952Z,95.05
2022-11-17T04:48:54.474Z,95.25
2022-11-17T04:51:22.243Z,95.15
2022-11-17T04:53:49.242Z,95.23
2022-11-17T04:56:16.275Z,95.46
2022-11-17T04:58:43.117Z,95.36
2022-11-17T05:01:12.612Z,95.48
2022-11-17T05:03:43.300Z,95.77
2022-11-17T05:06:11.909Z,95.57
2022-11-17T05:08:39.167Z,95.74
2022-11-17T05:11:25.603Z,95.55
2022-11-17T05:13:52.886Z,95.75
2022-11-17T05:16:41.620Z,95.96
2022-11-17T05:19:16.511Z,95.88
2022-11-17T05:21:43.159Z,95.67
2022-11-17T05:24:10.307Z,95.77
2022-11-17T05:26:38.369Z,95.99
2022-11-17T05:29:11.726Z,96.56
2022-11-17T05:31:38.905Z,96.10
2022-11-17T05:34:07.436Z,95.99
2022-11-17T05:36:34.476Z,95.93
2022-11-17T05:39:01.131Z,96.26
2022-11-17T05:41:30.425Z,96.48
2022-11-17T05:43:57.363Z,96.28
2022-11-17T05:46:24.950Z,96.40
2022-11-17T05:48:52.558Z,96.66
2022-11-17T05:51:21.509Z,96.35
2022-11-17T05:53:48.692Z,96.62
2022-11-17T05:56:33.769Z,96.60
2022-11-17T05:59:13.581Z,96.85
2022-11-17T06:01:49.411Z,96.86
2022-11-17T06:04:19.574Z,96.86
2022-11-17T06:06:47.661Z,96.75
2022-11-17T06:09:14.482Z,96.86
2022-11-17T06:11:41.262Z,96.75
2022-11-17T06:14:07.945Z,96.97
2022-11-17T06:16:38.250Z,97.19
2022-11-17T06:19:11.977Z,96.98
2022-11-17T06:22:09.786Z,97.14
2022-11-17T06:24:25.451Z,97.01
2022-11-17T06:26:52.550Z,97.20
2022-11-17T06:29:21.875Z,96.84
2022-11-17T06:31:48.779Z,97.07
2022-11-17T06:34:15.687Z,97.04
2022-11-17T06:36:42.242Z,96.75
2022-11-17T06:39:08.842Z,97.05
2022-11-17T06:41:36.919Z,96.81
2022-11-17T06:44:03.498Z,96.83
2022-11-17T06:46:38.002Z,97.22
2022-11-17T06:49:08.258Z,96.72
2022-11-17T06:51:43.775Z,97.02
2022-11-17T06:54:12.446Z,96.81
2022-11-17T06:56:39.059Z,96.86
2022-11-17T06:59:05.835Z,96.83
2022-11-17T07:01:32.498Z,96.68
2022-11-17T07:03:59.105Z,96.82
2022-11-17T07:06:25.710Z,96.63
2022-11-17T07:08:52.312Z,96.67
2022-11-17T07:11:19.279Z,96.71
2022-11-17T07:13:46.050Z,96.77
2022-11-17T07:16:21.723Z,96.67
2022-11-17T07:18:50.668Z,96.44
2022-11-17T07:21:18.097Z,96.49
2022-11-17T07:24:35.481Z,96.82
2022-11-17T07:27:02.203Z,96.39
2022-11-17T07:29:30.558Z,96.62
2022-11-17T07:31:57.426Z,96.46
2022-11-17T07:34:26.371Z,96.38
2022-11-17T07:36:52.966Z,96.60
2022-11-17T07:39:22.178Z,96.12
2022-11-17T07:41:49.048Z,96.23
2022-11-17T07:44:15.643Z,96.22
2022-11-17T07:46:44.709Z,96.12
2022-11-17T07:49:11.339Z,96.36
2022-11-17T07:51:40.297Z,95.89
2022-11-17T07:54:07.062Z,96.28
2022-11-17T07:56:34.471Z,96.04
2022-11-17T07:59:01.300Z,96.26
2022-11-17T08:01:28.010Z,96.30
2022-11-17T08:03:54.653Z,96.24
2022-11-17T08:06:22.747Z,96.10
2022-11-17T08:08:49.900Z,96.15
2022-11-17T08:11:16.838Z,95.92
2022-11-17T08:13:43.756Z,95.89
2022-11-17T08:16:14.438Z,95.62
2022-11-17T08:18:41.291Z,95.88
2022-11-17T08:21:10.132Z,95.50
2022-11-17T08:23:37.968Z,95.34
2022-11-17T08:26:09.537Z,95.43
2022-11-17T08:28:39.703Z,95.08
2022-11-17T08:31:16.512Z,95.10
2022-11-17T08:33:50.155Z,95.05
2022-11-17T08:36:17.590Z,95.09
2022-11-17T08:38:44.167Z,94.85
2022-11-17T08:41:10.787Z,94.97
2022-11-17T08:43:39.702Z,94.86
2022-11-17T08:46:10.531Z,94.63
2022-11-17T08:48:37.424Z,94.77
2022-11-17T08:51:06.190Z,94.77
2022-11-17T08:53:32.896Z,94.65
2022-11-17T08:55:59.842Z,94.68
2022-11-17T08:58:26.763Z,94.69
2022-11-17T09:00:53.440Z,94.89
2022-11-17T09:03:20.145Z,94.84
2022-11-17T09:05:50.028Z,94.73
2022-11-17T09:08:43.792Z,94.76
2022-11-17T09:11:07.822Z,94.71
2022-11-17T09:13:37.220Z,94.54
2022-11-17T09:16:05.908Z,94.43
2022-11-17T09:18:33.291Z,94.57
2022-11-17T09:21:07.784Z,94.62
2022-11-17T09:23:34.856Z,94.71
2022-11-17T09:26:12.921Z,94.40
2022-11-17T09:28:44.167Z,94.39
2022-11-17T09:31:15.364Z,94.62
2022-11-17T09:33:42.891Z,94.40
2022-11-17T09:36:11.044Z,94.39
2022-11-17T09:38:38.971Z,94.47
2022-11-17T09:41:27.771Z,94.15
2022-11-17T09:44:02.663Z,93.85
2022-11-17T09:46:35.347Z,93.89
2022-11-17T09:49:12.081Z,93.66
2022-11-17T09:51:42.488Z,93.24
2022-11-17T09:54:30.398Z,93.56
2022-11-17T09:56:59.336Z,92.91
2022-11-17T09:59:29.119Z,92.79
2022-11-17T10:01:58.502Z,92.68
2022-11-17T10:04:31.860Z,92.91
2022-11-17T10:06:58.758Z,92.69
2022-11-17T10:09:36.756Z,92.60
2022-11-17T10:12:26.851Z,93.03
2022-11-17T10:14:55.210Z,92.68
2022-11-17T10:17:26.270Z,92.28
2022-11-17T10:19:52.955Z,92.13
2022-11-17T10:22:33.325Z,92.41
2022-11-17T10:24:59.995Z,92.35
2022-11-17T10:27:32.574Z,92.06
2022-11-17T10:30:20.904Z,91.91
2022-11-17T10:32:54.837Z,91.52
2022-11-17T10:35:23.156Z,91.54
2022-11-17T10:38:12.914Z,91.47
2022-11-17T10:40:39.470Z,91.18
2022-11-17T10:43:18.556Z,91.42
2022-11-17T10:45:46.753Z,91.53
2022-11-17T10:48:30.341Z,91.88
2022-11-17T10:51:04.210Z,91.64
2022-11-17T10:53:44.956Z,91.53
2022-11-17T10:56:19.980Z,91.63
2022-11-17T10:59:01.340Z,91.45
2022-11-17T11:01:34.071Z,90.93
2022-11-17T11:04:04.397Z,90.90
2022-11-17T11:06:34.064Z,90.50
2022-11-17T11:09:10.569Z,90.29
2022-11-17T11:11:41.143Z,90.41
2022-11-17T11:14:38.553Z,90.46
2022-11-17T11:17:15.789Z,90.29
2022-11-17T11:19:46.147Z,90.30
2022-11-17T11:22:51.847Z,90.35
2022-11-17T11:25:38.062Z,90.34
2022-11-17T11:28:32.734Z,90.06
2022-11-17T11:31:07.618Z,90.22
2022-11-17T11:33:43.156Z,90.13
2022-11-17T11:36:33.311Z,90.29
2022-11-17T11:39:13.217Z,90.15
2022-11-17T11:41:46.073Z,90.20
2022-11-17T11:44:43.695Z,90.39
2022-11-17T11:47:25.563Z,90.35
2022-11-17T11:50:04.554Z,90.32
2022-11-17T11:52:35.858Z,90.37
2022-11-17T11:55:02.608Z,90.40
2022-11-17T11:57:39.068Z,90.40
2022-11-17T12:00:15.063Z,90.68
2022-11-17T12:02:43.657Z,90.27
2022-11-17T12:05:19.594Z,90.31
2022-11-17T12:08:10.203Z,90.07
2022-11-17T12:11:28.111Z,90.16
2022-11-17T12:13:57.162Z,90.15
2022-11-17T12:16:37.174Z,90.15
2022-11-17T12:19:42.466Z,90.14
2022-11-17T12:22:09.760Z,90.00
2022-11-17T12:24:42.144Z,90.22
2022-11-17T12:27:32.273Z,90.22
2022-11-17T12:29:58.939Z,90.28
2022-11-17T12:32:44.010Z,90.26
2022-11-17T12:35:27.821Z,90.14
2022-11-17T12:38:22.200Z,90.29
2022-11-17T12:40:52.235Z,89.92
2022-11-17T12:43:24.013Z,90.47
2022-11-17T12:45:53.555Z,90.08
2022-11-17T12:48:36.285Z,90.17
2022-11-17T12:51:37.294Z,90.01
2022-11-17T12:54:22.227Z,90.11
2022-11-17T12:57:00.996Z,90.05
2022-11-17T12:59:51.943Z,90.04
2022-11-17T13:02:41.880Z,89.88
2022-11-17T13:05:16.040Z,89.94
2022-11-17T13:07:42.722Z,90.15
2022-11-17T13:10:31.401Z,89.91
2022-11-17T13:13:23.960Z,89.98
2022-11-17T13:15:53.481Z,89.71
2022-11-17T13:18:22.802Z,89.85
2022-11-17T13:20:49.634Z,89.89
2022-11-17T13:23:25.867Z,89.67
2022-11-17T13:26:30.309Z,89.51
2022-11-17T13:29:19.325Z,89.33
2022-11-17T13:31:46.814Z,89.18
2022-11-17T13:34:21.197Z,89.05
2022-11-17T13:36:59.122Z,88.96
2022-11-17T13:39:29.133Z,89.07
2022-11-17T13:41:58.031Z,89.01
2022-11-17T13:44:27.565Z,88.70
2022-11-17T13:46:54.392Z,88.60
2022-11-17T13:49:34.564Z,88.58
2022-11-17T13:52:02.782Z,88.32
2022-11-17T13:54:29.921Z,88.16
2022-11-17T13:57:03.557Z,88.16
2022-11-17T13:59:38.726Z,87.90
2022-11-17T14:02:22.844Z,87.97
2022-11-17T14:05:19.347Z,87.73
2022-11-17T14:07:47.118Z,87.46
2022-11-17T14:10:20.590Z,87.63
2022-11-17T14:12:51.250Z,87.22
2022-11-17T14:15:25.724Z,87.06
2022-11-17T14:17:55.451Z,87.00
2022-11-17T14:20:31.863Z,86.85
2022-11-17T14:23:11.759Z,86.82
2022-11-17T14:25:41.542Z,86.67
2022-11-17T14:28:16.616Z,86.50
2022-11-17T14:30:43.551Z,86.49
2022-11-17T14:33:13.627Z,86.35
2022-11-17T14:35:40.868Z,86.47
2022-11-17T14:38:10.636Z,86.20
2022-11-17T14:40:37.353Z,86.46
2022-11-17T14:43:03.855Z,86.43
2022-11-17T14:45:34.162Z,86.48
2022-11-17T14:48:30.553Z,86.28
2022-11-17T14:51:06.032Z,86.26
2022-11-17T14:53:36.763Z,86.35
2022-11-17T14:56:16.543Z,86.15
2022-11-17T14:58:45.295Z,86.18
2022-11-17T15:01:17.802Z,85.98
2022-11-17T15:03:45.662Z,86.08
2022-11-17T15:06:19.506Z,86.07
2022-11-17T15:08:46.710Z,85.98
2022-11-17T15:11:17.954Z,86.02
2022-11-17T15:13:44.855Z,86.06
2022-11-17T15:16:12.179Z,86.30
2022-11-17T15:18:39.170Z,86.31
2022-11-17T15:21:07.868Z,86.22
2022-11-17T15:23:37.353Z,86.43
2022-11-17T15:26:10.721Z,86.61
2022-11-17T15:29:03.382Z,86.76
2022-11-17T15:31:30.016Z,86.42
2022-11-17T15:34:01.293Z,86.35
2022-11-17T15:36:30.870Z,86.45
2022-11-17T15:39:06.318Z,86.48
2022-11-17T15:41:33.275Z,86.54
2022-11-17T15:44:00.028Z,86.45
2022-11-17T15:46:26.688Z,86.59
2022-11-17T15:48:53.395Z,86.88
2022-11-17T15:54:16.715Z,86.58
2022-11-17T15:56:49.012Z,86.94
2022-11-17T15:59:16.121Z,86.86
2022-11-17T16:01:43.201Z,86.97
2022-11-17T16:04:15.974Z,86.90
2022-11-17T16:06:46.955Z,87.05
2022-11-17T16:09:15.303Z,86.89
2022-11-17T16:11:42.411Z,86.64
2022-11-17T16:14:09.236Z,86.82
2022-11-17T16:16:40.751Z,86.54
2022-11-17T16:19:07.748Z,86.43
2022-11-17T16:21:37.544Z,86.73
2022-11-17T16:24:04.199Z,86.70
2022-11-17T16:26:31.490Z,86.69
2022-11-17T16:29:04.277Z,86.63
2022-11-17T16:31:33.089Z,86.65
2022-11-17T16:34:00.863Z,86.38
2022-11-17T16:36:34.537Z,86.20
2022-11-17T16:39:04.404Z,86.21
2022-11-17T16:41:34.666Z,86.56
2022-11-17T16:44:02.094Z,85.96
2022-11-17T16:46:32.006Z,86.32
2022-11-17T16:49:04.424Z,86.30
2022-11-17T16:51:31.068Z,86.35
2022-11-17T16:54:05.578Z,86.24
2022-11-17T16:56:33.092Z,86.21
2022-11-17T16:58:59.963Z,86.60
2022-11-17T17:01:30.528Z,86.45
2022-11-17T17:03:59.555Z,86.50
2022-11-17T17:06:29.395Z,86.55
2022-11-17T17:08:57.952Z,86.80
2022-11-17T17:11:25.373Z,86.68
2022-11-17T17:13:54.109Z,86.92
2022-11-17T17:16:20.963Z,86.84
2022-11-17T17:18:48.398Z,87.28
2022-11-17T17:21:19.025Z,87.13
2022-11-17T17:23:45.838Z,87.31
2022-11-17T17:26:16.701Z,87.05
2022-11-17T17:28:44.717Z,87.74
2022-11-17T17:31:21.401Z,87.49
2022-11-17T17:33:50.317Z,87.65
2022-11-17T17:36:22.381Z,87.61
2022-11-17T17:38:55.376Z,87.64
2022-11-17T17:41:24.601Z,87.89
2022-11-17T17:44:02.991Z,87.76
2022-11-17T17:46:31.513Z,87.72
2022-11-17T17:48:58.567Z,87.98
2022-11-17T17:51:28.586Z,88.18
2022-11-17T17:54:00.707Z,87.76
2022-11-17T17:56:27.660Z,87.89
2022-11-17T17:58:55.567Z,88.17
2022-11-17T18:01:29.717Z,88.42
2022-11-17T18:04:01.481Z,88.04
2022-11-17T18:06:31.893Z,88.30
2022-11-17T18:08:59.442Z,88.35
2022-11-17T18:11:28.124Z,88.20
2022-11-17T18:13:54.768Z,88.40
2022-11-17T18:16:26.782Z,88.42
2022-11-17T18:19:02.358Z,88.35
2022-11-17T18:21:30.149Z,88.27
2022-11-17T18:24:02.069Z,88.83
2022-11-17T18:26:31.756Z,88.41
2022-11-17T18:29:06.660Z,88.76
2022-11-17T18:31:35.473Z,88.87
2022-11-17T18:34:14.201Z,88.93
2022-11-17T18:36:40.893Z,89.12
2022-11-17T18:39:07.523Z,89.28
2022-11-17T18:41:36.048Z,89.20
2022-11-17T18:44:02.914Z,89.14
2022-11-17T18:46:31.688Z,89.27
2022-11-17T18:48:59.176Z,89.45
2022-11-17T18:51:28.120Z,89.45
2022-11-17T18:53:57.504Z,89.63
2022-11-17T18:56:28.517Z,89.16
2022-11-17T18:58:58.099Z,89.01
2022-11-17T19:01:28.007Z,89.47
2022-11-17T19:03:56.286Z,89.52
2022-11-17T19:06:24.947Z,89.20
2022-11-17T19:08:52.669Z,89.15
2022-11-17T19:11:20.607Z,89.01
2022-11-17T19:13:47.769Z,89.48
2022-11-17T19:16:23.082Z,89.38
2022-11-17T19:18:52.020Z,89.59
2022-11-17T19:21:33.666Z,89.72
2022-11-17T19:24:03.178Z,89.77
2022-11-17T19:26:32.391Z,89.61
2022-11-17T19:29:11.196Z,89.76
2022-11-17T19:31:41.217Z,89.94
2022-11-17T19:34:10.466Z,89.52
2022-11-17T19:36:37.492Z,89.74
2022-11-17T19:39:04.417Z,90.02
2022-11-17T19:41:38.551Z,89.78
2022-11-17T19:44:09.248Z,89.81
2022-11-17T19:46:36.389Z,90.16
2022-11-17T19:49:04.515Z,90.08
2022-11-17T19:51:33.563Z,90.19
2022-11-17T19:54:06.273Z,89.96
2022-11-17T19:56:35.628Z,89.84
2022-11-17T19:59:03.463Z,90.09
2022-11-17T20:01:31.132Z,90.37
2022-11-17T20:04:02.175Z,90.38
2022-11-17T20:06:34.032Z,90.28
2022-11-17T20:09:00.760Z,90.19
2022-11-17T20:11:28.598Z,90.21
2022-11-17T20:13:55.837Z,90.28
2022-11-17T20:16:24.766Z,90.57
2022-11-17T20:18:59.603Z,90.74
2022-11-17T20:21:28.578Z,90.93
2022-11-17T20:23:58.980Z,90.90
2022-11-17T20:26:29.001Z,90.49
2022-11-17T20:28:57.011Z,90.92
2022-11-17T20:31:27.891Z,90.58
2022-11-17T20:34:00.574Z,90.70
2022-11-17T20:36:28.772Z,90.76
2022-11-17T20:38:57.759Z,91.41
2022-11-17T20:41:25.041Z,91.03
2022-11-17T20:43:55.834Z,91.32
2022-11-17T20:46:23.258Z,91.30
2022-11-17T20:48:53.529Z,91.58
2022-11-17T20:51:21.778Z,91.73
2022-11-17T20:53:51.212Z,91.63
2022-11-17T20:56:18.508Z,91.56
2022-11-17T20:58:45.599Z,91.76
2022-11-17T21:01:15.025Z,92.22
2022-11-17T21:03:42.095Z,91.63
2022-11-17T21:06:09.394Z,91.93
2022-11-17T21:08:38.143Z,92.11
2022-11-17T21:11:09.636Z,92.05
2022-11-17T21:13:37.400Z,91.89
2022-11-17T21:16:10.572Z,91.86
2022-11-17T21:18:38.899Z,91.72
2022-11-17T21:21:11.851Z,92.06
2022-11-17T21:23:39.896Z,91.73
2022-11-17T21:26:07.736Z,91.89
2022-11-17T21:28:35.556Z,92.04
2022-11-17T21:31:15.792Z,91.95
2022-11-17T21:33:45.571Z,91.85
2022-11-17T21:36:19.746Z,92.01
2022-11-17T21:38:49.378Z,92.37
2022-11-17T21:41:21.582Z,92.29
2022-11-17T21:43:52.246Z,92.25
2022-11-17T21:46:20.978Z,92.17
2022-11-17T21:48:48.290Z,92.05
2022-11-17T21:51:18.112Z,92.26
2022-11-17T21:53:47.369Z,92.57
2022-11-17T21:56:14.037Z,92.26
2022-11-17T21:58:41.363Z,92.66
2022-11-17T22:01:10.163Z,92.77
2022-11-17T22:03:37.593Z,92.93
2022-11-17T22:06:13.341Z,92.72
2022-11-17T22:08:41.773Z,93.09
2022-11-17T22:11:38.738Z,93.24
2022-11-17T22:14:13.271Z,92.90
2022-11-17T22:16:42.548Z,93.06
2022-11-17T22:19:10.164Z,92.89
2022-11-17T22:21:37.428Z,93.10
2022-11-17T22:24:08.334Z,93.15
2022-11-17T22:26:38.446Z,93.23
2022-11-17T22:29:11.372Z,93.30
2022-11-17T22:31:37.983Z,93.45
2022-11-17T22:34:04.578Z,93.38
2022-11-17T22:36:33.919Z,93.60
2022-11-17T22:39:00.440Z,93.64
2022-11-17T22:41:29.511Z,93.67
2022-11-17T22:43:59.264Z,93.75
2022-11-17T22:46:27.950Z,93.79
2022-11-17T22:48:54.786Z,93.62
2022-11-17T22:51:40.377Z,94.08
2022-11-17T22:54:08.178Z,93.83
2022-11-17T22:56:34.917Z,93.82
2022-11-17T22:59:01.593Z,93.78
2022-11-17T23:01:28.115Z,94.08
2022-11-17T23:03:54.826Z,94.00
2022-11-17T23:06:23.025Z,94.16
2022-11-17T23:08:50.447Z,94.15
2022-11-17T23:14:08.297Z,93.98
2022-11-17T23:16:35.567Z,94.47
2022-11-17T23:19:02.164Z,94.36
2022-11-17T23:21:28.813Z,93.90
2022-11-17T23:23:55.873Z,94.61
2022-11-17T23:26:22.635Z,94.60
2022-11-17T23:28:49.542Z,94.49
2022-11-17T23:31:18.986Z,94.42
2022-11-17T23:33:47.620Z,94.61
2022-11-17T23:36:19.751Z,94.56
2022-11-17T23:38:47.291Z,94.66
2022-11-17T23:41:16.097Z,94.55
2022-11-17T23:43:45.485Z,94.55
2022-11-17T23:46:15.065Z,94.81
2022-11-17T23:48:42.616Z,94.85
2022-11-17T23:51:15.119Z,94.92
2022-11-17T23:53:42.282Z,94.75
2022-11-17T23:56:10.255Z,94.73
2022-11-17T23:58:37.698Z,94.86
